createdAt,value
2022-10-22T00:01:24.907Z,98078.53
2022-10-22T00:03:53.365Z,98077.78
2022-10-22T00:06:21.644Z,98074.34
2022-10-22T00:08:50.587Z,98077.09
2022-10-22T00:11:19.712Z,98073.38
2022-10-22T00:13:48.231Z,98072.19
2022-10-22T00:16:16.578Z,98068.13
2022-10-22T00:18:44.858Z,98082.75
2022-10-22T00:21:13.148Z,98072.56
2022-10-22T00:23:43.386Z,98068.81
2022-10-22T00:26:12.335Z,98084.41
2022-10-22T00:28:40.701Z,98081.56
2022-10-22T00:31:09.082Z,98079.78
2022-10-22T00:33:37.445Z,98088.69
2022-10-22T00:36:06.586Z,98081.34
2022-10-22T00:38:35.093Z,98065.88
2022-10-22T00:41:03.401Z,98064.84
2022-10-22T00:43:31.693Z,98052.72
2022-10-22T00:46:00.592Z,98040.25
2022-10-22T00:48:30.333Z,98041.22
2022-10-22T00:51:01.771Z,98037.22
2022-10-22T00:53:37.699Z,98035.34
2022-10-22T00:56:06.633Z,98035.13
2022-10-22T00:58:46.100Z,98022.03
2022-10-22T01:01:17.386Z,98021.41
2022-10-22T01:03:45.726Z,98035.91
2022-10-22T01:06:19.880Z,98031.41
2022-10-22T01:09:15.007Z,98028.16
2022-10-22T01:12:04.974Z,98028.59
2022-10-22T01:14:57.497Z,98021.28
2022-10-22T01:17:28.789Z,98028.16
2022-10-22T01:20:21.009Z,98024.53
2022-10-22T01:23:38.583Z,98016.59
2022-10-22T01:26:19.423Z,98026.56
2022-10-22T01:29:13.348Z,98023.00
2022-10-22T01:31:44.760Z,98017.31
2022-10-22T01:34:15.694Z,98007.56
2022-10-22T01:36:45.269Z,98004.19
2022-10-22T01:39:15.022Z,98007.13
2022-10-22T01:41:46.648Z,98004.41
2022-10-22T01:44:28.073Z,98008.78
2022-10-22T01:47:14.975Z,98006.69
2022-10-22T01:49:56.690Z,97990.59
2022-10-22T01:52:50.002Z,97992.00
2022-10-22T01:55:24.203Z,98000.50
2022-10-22T01:58:07.747Z,97979.81
2022-10-22T02:00:38.203Z,97995.47
2022-10-22T02:03:17.477Z,97975.94
2022-10-22T02:05:57.188Z,97973.47
2022-10-22T02:08:28.289Z,97977.78
2022-10-22T02:10:56.656Z,97972.09
2022-10-22T02:13:35.296Z,97975.00
2022-10-22T02:16:05.816Z,97977.19
2022-10-22T02:18:36.481Z,97962.63
2022-10-22T02:23:37.351Z,97975.00
2022-10-22T02:26:10.546Z,97968.50
2022-10-22T02:28:44.599Z,97957.25
2022-10-22T02:31:19.743Z,97954.09
2022-10-22T02:33:49.669Z,97953.47
2022-10-22T02:36:18.165Z,97955.66
2022-10-22T02:38:46.619Z,97948.63
2022-10-22T02:41:16.537Z,97953.47
2022-10-22T02:43:46.316Z,97958.66
2022-10-22T02:46:14.760Z,97962.72
2022-10-22T02:48:43.078Z,97957.88
2022-10-22T02:51:11.537Z,97957.72
2022-10-22T02:53:39.821Z,97954.66
2022-10-22T02:56:08.430Z,97971.75
2022-10-22T02:58:36.941Z,97963.66
2022-10-22T03:01:06.275Z,97971.91
2022-10-22T03:03:34.704Z,97972.00
2022-10-22T03:06:03.029Z,97976.38
2022-10-22T03:08:32.698Z,97977.41
2022-10-22T03:11:01.035Z,97985.56
2022-10-22T03:13:29.447Z,97975.22
2022-10-22T03:15:57.769Z,97973.88
2022-10-22T03:18:26.150Z,97971.69
2022-10-22T03:21:26.891Z,97958.44
2022-10-22T03:23:55.386Z,97953.72
2022-10-22T03:26:24.584Z,97952.72
2022-10-22T03:28:52.914Z,97949.59
2022-10-22T03:31:21.282Z,97942.41
2022-10-22T03:33:50.321Z,97934.41
2022-10-22T03:36:18.650Z,97933.13
2022-10-22T03:38:47.032Z,97926.28
2022-10-22T03:41:15.322Z,97925.50
2022-10-22T03:43:45.373Z,97932.06
2022-10-22T03:46:13.738Z,97936.34
2022-10-22T03:48:42.160Z,97926.91
2022-10-22T03:51:10.815Z,97934.56
2022-10-22T03:53:39.720Z,97934.06
2022-10-22T03:56:12.154Z,97938.69
2022-10-22T03:58:41.520Z,97943.09
2022-10-22T04:01:11.562Z,97945.94
2022-10-22T04:03:40.800Z,97943.97
2022-10-22T04:06:11.085Z,97945.22
2022-10-22T04:08:40.283Z,97942.31
2022-10-22T04:11:09.129Z,97942.16
2022-10-22T04:13:37.696Z,97952.47
2022-10-22T04:16:15.162Z,97939.88
2022-10-22T04:18:44.076Z,97936.13
2022-10-22T04:21:13.180Z,97917.09
2022-10-22T04:23:49.331Z,97918.34
2022-10-22T04:26:19.638Z,97913.41
2022-10-22T04:28:50.767Z,97909.94
2022-10-22T04:31:23.444Z,97906.25
2022-10-22T04:33:59.296Z,97912.56
2022-10-22T04:36:28.253Z,97909.56
2022-10-22T04:39:00.883Z,97918.88
2022-10-22T04:41:31.942Z,97905.34
2022-10-22T04:44:00.612Z,97920.19
2022-10-22T04:46:30.471Z,97927.84
2022-10-22T04:48:59.011Z,97918.34
2022-10-22T04:51:27.942Z,97921.22
2022-10-22T04:53:56.372Z,97921.97
2022-10-22T04:56:26.640Z,97913.63
2022-10-22T04:59:06.037Z,97926.41
2022-10-22T05:01:42.640Z,97925.94
2022-10-22T05:04:13.983Z,97936.75
2022-10-22T05:06:43.066Z,97936.56
2022-10-22T05:09:20.986Z,97935.47
2022-10-22T05:11:51.070Z,97929.72
2022-10-22T05:14:23.941Z,97936.84
2022-10-22T05:16:52.670Z,97942.69
2022-10-22T05:19:25.912Z,97943.50
2022-10-22T05:21:55.688Z,97944.16
2022-10-22T05:24:24.073Z,97954.03
2022-10-22T05:26:56.120Z,97945.63
2022-10-22T05:29:25.319Z,97956.31
2022-10-22T05:31:54.395Z,97964.59
2022-10-22T05:34:22.803Z,97960.56
2022-10-22T05:36:51.239Z,97964.34
2022-10-22T05:39:19.663Z,97967.47
2022-10-22T05:41:48.709Z,97972.31
2022-10-22T05:44:17.076Z,97974.25
2022-10-22T05:46:46.198Z,97973.03
2022-10-22T05:49:15.584Z,97972.59
2022-10-22T05:51:46.220Z,97983.34
2022-10-22T05:54:21.153Z,97979.72
2022-10-22T05:56:49.770Z,97981.00
2022-10-22T05:59:18.213Z,97984.00
2022-10-22T06:01:48.039Z,97986.06
2022-10-22T06:04:19.113Z,97983.56
2022-10-22T06:06:51.388Z,97990.78
2022-10-22T06:09:31.299Z,97986.78
2022-10-22T06:11:59.923Z,97991.50
2022-10-22T06:14:29.404Z,97990.47
2022-10-22T06:16:59.626Z,97994.34
2022-10-22T06:19:28.333Z,97985.97
2022-10-22T06:21:57.146Z,97982.66
2022-10-22T06:24:25.685Z,97984.88
2022-10-22T06:26:54.711Z,97994.81
2022-10-22T06:29:23.218Z,97991.06
2022-10-22T06:31:51.832Z,98000.00
2022-10-22T06:34:20.314Z,97996.75
2022-10-22T06:36:48.762Z,97996.22
2022-10-22T06:39:17.622Z,97994.41
2022-10-22T06:41:46.203Z,97999.09
2022-10-22T06:44:21.453Z,97996.53
2022-10-22T06:46:52.702Z,97994.13
2022-10-22T06:49:21.185Z,97980.66
2022-10-22T06:51:54.829Z,97984.53
2022-10-22T06:54:23.703Z,97977.09
2022-10-22T06:56:52.286Z,97976.59
2022-10-22T06:59:20.957Z,97969.56
2022-10-22T07:01:49.595Z,97971.09
2022-10-22T07:04:18.626Z,97968.44
2022-10-22T07:06:47.163Z,97962.09
2022-10-22T07:09:15.752Z,97969.47
2022-10-22T07:11:45.756Z,97960.63
2022-10-22T07:14:14.396Z,97953.75
2022-10-22T07:16:44.102Z,97950.44
2022-10-22T07:19:12.632Z,97948.63
2022-10-22T07:21:42.374Z,97943.13
2022-10-22T07:24:10.874Z,97937.00
2022-10-22T07:26:39.588Z,97940.63
2022-10-22T07:29:08.181Z,97928.53
2022-10-22T07:31:38.370Z,97927.69
2022-10-22T07:34:07.002Z,97928.00
2022-10-22T07:36:36.704Z,97910.22
2022-10-22T07:39:05.190Z,97911.41
2022-10-22T07:41:33.868Z,97912.88
2022-10-22T07:44:02.314Z,97893.78
2022-10-22T07:46:31.121Z,97903.00
2022-10-22T07:49:00.203Z,97903.25
2022-10-22T07:51:28.903Z,97904.47
2022-10-22T07:53:58.247Z,97904.38
2022-10-22T07:56:27.553Z,97905.63
2022-10-22T07:58:56.252Z,97899.81
2022-10-22T08:01:24.783Z,97884.38
2022-10-22T08:03:53.258Z,97886.97
2022-10-22T08:06:21.827Z,97884.47
2022-10-22T08:08:51.786Z,97892.81
2022-10-22T08:11:20.315Z,97892.38
2022-10-22T08:13:49.279Z,97891.00
2022-10-22T08:16:18.637Z,97889.06
2022-10-22T08:18:47.114Z,97876.56
2022-10-22T08:21:15.849Z,97877.59
2022-10-22T08:23:44.424Z,97874.06
2022-10-22T08:26:12.843Z,97874.13
2022-10-22T08:28:41.344Z,97861.59
2022-10-22T08:31:11.192Z,97856.94
2022-10-22T08:33:40.113Z,97865.25
2022-10-22T08:36:09.587Z,97863.13
2022-10-22T08:38:38.934Z,97860.97
2022-10-22T08:41:18.279Z,97864.34
2022-10-22T08:43:49.899Z,97859.75
2022-10-22T08:46:25.664Z,97863.31
2022-10-22T08:49:01.552Z,97866.69
2022-10-22T08:51:34.715Z,97854.06
2022-10-22T08:54:14.285Z,97856.34
2022-10-22T08:56:45.550Z,97854.69
2022-10-22T08:59:49.623Z,97857.16
2022-10-22T09:02:42.043Z,97849.47
2022-10-22T09:05:28.670Z,97843.53
2022-10-22T09:07:58.358Z,97844.72
2022-10-22T09:10:29.889Z,97845.53
2022-10-22T09:12:58.309Z,97840.28
2022-10-22T09:15:27.482Z,97835.78
2022-10-22T09:18:29.767Z,97837.59
2022-10-22T09:21:19.846Z,97826.94
2022-10-22T09:24:09.652Z,97823.66
2022-10-22T09:26:39.394Z,97824.16
2022-10-22T09:29:08.072Z,97812.38
2022-10-22T09:31:36.875Z,97817.69
2022-10-22T09:34:08.023Z,97806.38
2022-10-22T09:36:36.906Z,97795.72
2022-10-22T09:39:05.508Z,97818.31
2022-10-22T09:41:34.722Z,97816.56
2022-10-22T09:44:03.302Z,97808.72
2022-10-22T09:46:31.829Z,97801.38
2022-10-22T09:49:10.397Z,97795.28
2022-10-22T09:51:58.422Z,97794.03
2022-10-22T09:54:47.109Z,97794.19
2022-10-22T09:57:23.806Z,97782.69
2022-10-22T09:59:54.253Z,97779.41
2022-10-22T10:02:44.715Z,97773.72
2022-10-22T10:05:21.354Z,97771.94
2022-10-22T10:07:49.830Z,97768.13
2022-10-22T10:10:22.143Z,97757.25
2022-10-22T10:13:14.148Z,97756.13
2022-10-22T10:15:52.004Z,97761.50
2022-10-22T10:18:33.113Z,97747.44
2022-10-22T10:21:49.658Z,97755.66
2022-10-22T10:24:30.331Z,97739.00
2022-10-22T10:27:16.331Z,97735.53
2022-10-22T10:30:06.079Z,97740.63
2022-10-22T10:33:06.467Z,97725.56
2022-10-22T10:35:58.229Z,97731.72
2022-10-22T10:38:38.159Z,97726.47
2022-10-22T10:41:15.539Z,97729.19
2022-10-22T10:43:59.212Z,97717.69
2022-10-22T10:46:46.293Z,97710.53
2022-10-22T10:49:25.112Z,97705.50
2022-10-22T10:52:18.822Z,97708.72
2022-10-22T10:55:07.171Z,97701.25
2022-10-22T10:58:02.993Z,97702.69
2022-10-22T11:00:34.668Z,97696.22
2022-10-22T11:03:12.538Z,97701.19
2022-10-22T11:05:56.219Z,97690.91
2022-10-22T11:08:57.533Z,97685.88
2022-10-22T11:11:51.210Z,97683.28
2022-10-22T11:14:25.307Z,97677.97
2022-10-22T11:16:59.606Z,97677.88
2022-10-22T11:19:54.636Z,97670.84
2022-10-22T11:22:50.521Z,97665.22
2022-10-22T11:25:45.605Z,97664.41
2022-10-22T11:28:19.973Z,97667.13
2022-10-22T11:30:51.862Z,97669.25
2022-10-22T11:33:23.587Z,97660.53
2022-10-22T11:35:52.919Z,97658.06
2022-10-22T11:38:24.375Z,97650.81
2022-10-22T11:41:05.533Z,97645.19
2022-10-22T11:44:22.706Z,97645.19
2022-10-22T11:46:53.919Z,97637.19
2022-10-22T11:49:25.558Z,97630.66
2022-10-22T11:52:07.644Z,97629.94
2022-10-22T11:54:37.695Z,97626.38
2022-10-22T11:57:41.525Z,97619.13
2022-10-22T12:00:30.318Z,97619.31
2022-10-22T12:03:18.375Z,97618.16
2022-10-22T12:05:47.175Z,97612.50
2022-10-22T12:08:16.247Z,97618.72
2022-10-22T12:10:58.015Z,97617.03
2022-10-22T12:14:03.281Z,97606.69
2022-10-22T12:16:54.766Z,97608.06
2022-10-22T12:19:26.394Z,97606.50
2022-10-22T12:22:16.333Z,97616.63
2022-10-22T12:24:48.381Z,97597.34
2022-10-22T12:27:30.973Z,97599.09
2022-10-22T12:30:00.526Z,97605.63
2022-10-22T12:32:45.855Z,97600.56
2022-10-22T12:35:20.129Z,97595.34
2022-10-22T12:37:53.145Z,97592.13
2022-10-22T12:40:22.579Z,97603.00
2022-10-22T12:43:17.592Z,97605.22
2022-10-22T12:45:49.957Z,97594.81
2022-10-22T12:48:45.680Z,97594.22
2022-10-22T12:51:19.756Z,97588.63
2022-10-22T12:53:55.675Z,97590.41
2022-10-22T12:56:31.698Z,97584.59
2022-10-22T12:59:07.665Z,97581.50
2022-10-22T13:01:54.791Z,97586.69
2022-10-22T13:04:31.731Z,97585.06
2022-10-22T13:07:18.385Z,97588.50
2022-10-22T13:09:59.743Z,97594.22
2022-10-22T13:12:30.187Z,97580.31
2022-10-22T13:14:58.702Z,97587.91
2022-10-22T13:17:42.919Z,97579.38
2022-10-22T13:20:21.341Z,97571.88
2022-10-22T13:23:04.054Z,97571.19
2022-10-22T13:25:33.860Z,97575.47
2022-10-22T13:28:17.448Z,97564.34
2022-10-22T13:31:02.484Z,97563.66
2022-10-22T13:33:39.507Z,97572.06
2022-10-22T13:36:08.836Z,97574.94
2022-10-22T13:38:39.854Z,97574.66
2022-10-22T13:41:19.796Z,97568.56
2022-10-22T13:43:49.367Z,97564.91
2022-10-22T13:46:17.960Z,97562.06
2022-10-22T13:48:47.095Z,97560.41
2022-10-22T13:51:26.094Z,97561.38
2022-10-22T13:53:55.493Z,97559.59
2022-10-22T13:56:24.327Z,97555.56
2022-10-22T13:58:52.977Z,97558.56
2022-10-22T14:01:27.951Z,97555.47
2022-10-22T14:03:58.368Z,97549.81
2022-10-22T14:06:29.240Z,97549.03
2022-10-22T14:09:02.547Z,97551.28
2022-10-22T14:11:35.590Z,97549.06
2022-10-22T14:14:05.303Z,97559.66
2022-10-22T14:16:34.685Z,97562.78
2022-10-22T14:19:03.136Z,97558.53
2022-10-22T14:21:35.678Z,97550.00
2022-10-22T14:24:06.088Z,97564.16
2022-10-22T14:26:37.963Z,97552.28
2022-10-22T14:29:10.694Z,97553.78
2022-10-22T14:34:16.226Z,97552.09
2022-10-22T14:36:45.061Z,97552.53
2022-10-22T14:39:14.726Z,97553.63
2022-10-22T14:41:45.157Z,97557.81
2022-10-22T14:44:14.708Z,97556.09
2022-10-22T14:46:45.723Z,97559.72
2022-10-22T14:49:16.556Z,97560.28
2022-10-22T14:51:45.199Z,97558.47
2022-10-22T14:54:13.699Z,97558.22
2022-10-22T14:56:42.408Z,97562.53
2022-10-22T14:59:11.307Z,97569.81
2022-10-22T15:01:43.167Z,97562.06
2022-10-22T15:04:12.401Z,97561.69
2022-10-22T15:06:40.911Z,97570.97
2022-10-22T15:09:10.183Z,97573.00
2022-10-22T15:11:40.176Z,97570.78
2022-10-22T15:14:09.655Z,97569.78
2022-10-22T15:16:38.452Z,97582.09
2022-10-22T15:19:07.218Z,97577.34
2022-10-22T15:21:36.504Z,97573.19
2022-10-22T15:24:06.707Z,97575.47
2022-10-22T15:26:37.045Z,97584.59
2022-10-22T15:29:08.632Z,97582.69
2022-10-22T15:31:50.066Z,97578.59
2022-10-22T15:34:32.279Z,97578.06
2022-10-22T15:37:03.738Z,97572.75
2022-10-22T15:39:34.322Z,97582.38
2022-10-22T15:42:11.101Z,97578.06
2022-10-22T15:44:43.634Z,97586.88
2022-10-22T15:47:19.580Z,97574.00
2022-10-22T15:49:49.510Z,97586.50
2022-10-22T15:52:18.285Z,97596.59
2022-10-22T15:54:51.987Z,97602.75
2022-10-22T15:57:20.820Z,97593.56
2022-10-22T15:59:55.071Z,97598.56
2022-10-22T16:02:24.667Z,97616.75
2022-10-22T16:04:54.389Z,97616.69
2022-10-22T16:07:28.944Z,97617.72
2022-10-22T16:10:01.613Z,97631.47
2022-10-22T16:12:34.099Z,97631.13
2022-10-22T16:15:06.747Z,97630.00
2022-10-22T16:17:36.997Z,97634.88
2022-10-22T16:20:07.504Z,97638.75
2022-10-22T16:22:39.771Z,97635.88
2022-10-22T16:25:11.830Z,97642.41
2022-10-22T16:27:53.178Z,97648.69
2022-10-22T16:30:48.305Z,97647.16
2022-10-22T16:33:17.770Z,97638.38
2022-10-22T16:35:49.869Z,97649.41
2022-10-22T16:38:23.736Z,97652.94
2022-10-22T16:40:58.538Z,97640.03
2022-10-22T16:43:47.613Z,97657.00
2022-10-22T16:46:19.127Z,97649.66
2022-10-22T16:48:53.305Z,97655.41
2022-10-22T16:51:27.899Z,97653.66
2022-10-22T16:54:12.235Z,97651.38
2022-10-22T16:56:46.895Z,97660.75
2022-10-22T16:59:15.523Z,97651.88
2022-10-22T17:01:44.150Z,97644.53
2022-10-22T17:04:19.485Z,97643.53
2022-10-22T17:06:52.219Z,97649.00
2022-10-22T17:09:23.669Z,97654.41
2022-10-22T17:11:56.182Z,97652.06
2022-10-22T17:14:34.848Z,97632.84
2022-10-22T17:17:14.922Z,97613.16
2022-10-22T17:19:46.837Z,97618.91
2022-10-22T17:22:22.486Z,97627.84
2022-10-22T17:25:15.968Z,97617.28
2022-10-22T17:27:50.898Z,97623.06
2022-10-22T17:30:27.281Z,97619.97
2022-10-22T17:32:56.501Z,97619.16
2022-10-22T17:38:15.831Z,97627.53
2022-10-22T17:40:48.215Z,97636.94
2022-10-22T17:43:23.510Z,97640.63
2022-10-22T17:46:16.701Z,97644.00
2022-10-22T17:48:56.983Z,97638.22
2022-10-22T17:55:21.474Z,97643.69
2022-10-22T17:57:53.722Z,97644.13
2022-10-22T18:00:34.681Z,97644.88
2022-10-22T18:03:08.213Z,97648.94
2022-10-22T18:05:39.573Z,97645.97
2022-10-22T18:08:11.217Z,97646.00
2022-10-22T18:10:41.065Z,97643.00
2022-10-22T18:13:16.700Z,97642.50
2022-10-22T18:15:54.551Z,97636.59
2022-10-22T18:28:15.920Z,97648.91
2022-10-22T18:30:48.165Z,97648.53
2022-10-22T18:33:27.250Z,97656.03
2022-10-22T18:36:07.542Z,97665.41
2022-10-22T18:38:42.889Z,97663.75
2022-10-22T18:41:13.866Z,97666.38
2022-10-22T18:43:48.431Z,97668.78
2022-10-22T18:46:19.702Z,97666.91
2022-10-22T18:48:50.348Z,97659.16
2022-10-22T18:51:19.147Z,97670.91
2022-10-22T18:54:05.710Z,97677.59
2022-10-22T18:56:49.603Z,97669.28
2022-10-22T18:59:23.517Z,97669.03
2022-10-22T19:04:37.154Z,97664.94
2022-10-22T19:09:40.671Z,97667.25
2022-10-22T19:12:16.176Z,97668.47
2022-10-22T19:14:50.925Z,97669.94
2022-10-22T19:17:23.119Z,97665.84
2022-10-22T19:19:55.885Z,97672.31
2022-10-22T19:22:33.396Z,97682.31
2022-10-22T19:25:08.283Z,97675.75
2022-10-22T19:27:49.806Z,97676.22
2022-10-22T19:30:22.433Z,97684.09
2022-10-22T19:32:54.408Z,97684.34
2022-10-22T19:35:25.905Z,97684.22
2022-10-22T19:38:10.592Z,97680.31
2022-10-22T19:40:51.708Z,97683.13
2022-10-22T19:43:30.804Z,97678.09
2022-10-22T19:45:59.620Z,97681.59
2022-10-22T19:48:30.293Z,97688.13
2022-10-22T19:51:04.235Z,97681.97
2022-10-22T19:53:36.354Z,97675.13
2022-10-22T19:56:08.941Z,97678.84
2022-10-22T19:58:42.003Z,97686.44
2022-10-22T20:01:12.744Z,97674.50
2022-10-22T20:03:41.493Z,97673.56
2022-10-22T20:06:10.744Z,97681.78
2022-10-22T20:08:39.598Z,97682.31
2022-10-22T20:11:11.189Z,97697.28
2022-10-22T20:13:43.618Z,97688.94
2022-10-22T20:16:21.624Z,97683.59
2022-10-22T20:18:50.521Z,97680.53
2022-10-22T20:21:22.319Z,97685.97
2022-10-22T20:23:57.072Z,97689.41
2022-10-22T20:26:28.511Z,97682.59
2022-10-22T20:28:57.680Z,97675.72
2022-10-22T20:31:28.176Z,97674.38
2022-10-22T20:34:01.525Z,97680.34
2022-10-22T20:36:30.401Z,97667.16
2022-10-22T20:39:00.914Z,97674.91
2022-10-22T20:41:31.537Z,97668.22
2022-10-22T20:44:00.147Z,97675.47
2022-10-22T20:46:30.849Z,97682.47
2022-10-22T20:49:04.016Z,97674.84
2022-10-22T20:51:33.540Z,97665.56
2022-10-22T20:54:02.034Z,97665.31
2022-10-22T20:56:30.591Z,97672.50
2022-10-22T20:59:06.382Z,97672.28
2022-10-22T21:01:40.805Z,97665.59
2022-10-22T21:04:10.653Z,97663.28
2022-10-22T21:06:40.479Z,97665.13
2022-10-22T21:09:10.106Z,97670.47
2022-10-22T21:11:39.787Z,97679.41
2022-10-22T21:14:09.785Z,97669.69
2022-10-22T21:16:41.365Z,97672.94
2022-10-22T21:19:10.393Z,97672.00
2022-10-22T21:21:38.808Z,97665.09
2022-10-22T21:24:07.322Z,97669.78
2022-10-22T21:26:39.646Z,97655.03
2022-10-22T21:29:08.599Z,97656.09
2022-10-22T21:31:37.450Z,97653.84
2022-10-22T21:34:05.852Z,97658.63
2022-10-22T21:36:34.269Z,97642.59
2022-10-22T21:39:03.191Z,97651.06
2022-10-22T21:41:31.589Z,97654.13
2022-10-22T21:44:00.033Z,97656.28
2022-10-22T21:46:28.680Z,97650.78
2022-10-22T21:48:58.878Z,97657.81
2022-10-22T21:51:27.342Z,97654.53
2022-10-22T21:53:55.960Z,97646.13
2022-10-22T21:56:28.783Z,97653.47
2022-10-22T21:58:57.192Z,97649.75
2022-10-22T22:01:26.025Z,97641.06
2022-10-22T22:03:54.456Z,97654.31
2022-10-22T22:06:24.021Z,97655.69
2022-10-22T22:08:53.254Z,97646.91
2022-10-22T22:11:25.377Z,97652.25
2022-10-22T22:13:54.370Z,97646.91
2022-10-22T22:16:28.371Z,97650.34
2022-10-22T22:19:01.479Z,97651.38
2022-10-22T22:21:30.080Z,97656.97
2022-10-22T22:23:58.823Z,97650.28
2022-10-22T22:26:29.787Z,97650.13
2022-10-22T22:28:59.706Z,97656.97
2022-10-22T22:31:34.640Z,97651.78
2022-10-22T22:34:05.019Z,97664.88
2022-10-22T22:36:38.051Z,97643.84
2022-10-22T22:39:08.399Z,97655.84
2022-10-22T22:41:37.967Z,97644.16
2022-10-22T22:44:06.386Z,97637.16
2022-10-22T22:46:34.777Z,97642.34
2022-10-22T22:49:03.868Z,97633.28
2022-10-22T22:51:32.785Z,97635.41
2022-10-22T22:54:02.167Z,97631.41
2022-10-22T22:56:31.596Z,97632.28
2022-10-22T22:59:01.197Z,97647.00
2022-10-22T23:01:34.192Z,97632.81
2022-10-22T23:04:06.733Z,97628.19
2022-10-22T23:06:36.572Z,97619.19
2022-10-22T23:09:06.223Z,97621.03
2022-10-22T23:11:34.692Z,97629.91
2022-10-22T23:14:04.230Z,97640.59
2022-10-22T23:16:35.055Z,97634.66
2022-10-22T23:19:03.874Z,97640.38
2022-10-22T23:21:37.991Z,97643.09
2022-10-22T23:24:10.339Z,97637.34
2022-10-22T23:26:40.818Z,97648.81
2022-10-22T23:29:20.155Z,97656.78
2022-10-22T23:31:48.816Z,97653.44
2022-10-22T23:36:52.771Z,97678.84
2022-10-22T23:39:22.599Z,97669.50
2022-10-22T23:41:51.414Z,97665.47
2022-10-22T23:44:21.100Z,97667.00
2022-10-22T23:46:50.749Z,97663.78
2022-10-22T23:49:19.205Z,97663.03
2022-10-22T23:51:47.500Z,97666.97
2022-10-22T23:54:16.500Z,97673.81
2022-10-22T23:56:44.967Z,97668.31
